sensor_id;sensor_type;location;lat;lon;timestamp;P1;durP1;ratioP1;P2;durP2;ratioP2
52057;SDS011;38063;53.210;6.504;2023-04-15T00:00:29;11.75;;;5.20;;
52057;SDS011;38063;53.210;6.504;2023-04-15T00:02:54;10.45;;;4.63;;
52057;SDS011;38063;53.210;6.504;2023-04-15T00:05:20;13.88;;;5.45;;
52057;SDS011;38063;53.210;6.504;2023-04-15T00:07:46;11.27;;;5.13;;
52057;SDS011;38063;53.210;6.504;2023-04-15T00:10:12;15.45;;;5.13;;
52057;SDS011;38063;53.210;6.504;2023-04-15T00:12:38;9.50;;;5.75;;
52057;SDS011;38063;53.210;6.504;2023-04-15T00:15:05;11.73;;;5.25;;
52057;SDS011;38063;53.210;6.504;2023-04-15T00:17:33;13.77;;;5.35;;
52057;SDS011;38063;53.210;6.504;2023-04-15T00:19:59;7.80;;;4.88;;
52057;SDS011;38063;53.210;6.504;2023-04-15T00:22:25;12.43;;;5.38;;
52057;SDS011;38063;53.210;6.504;2023-04-15T00:24:52;12.13;;;6.75;;
52057;SDS011;38063;53.210;6.504;2023-04-15T00:27:18;10.77;;;5.63;;
52057;SDS011;38063;53.210;6.504;2023-04-15T00:29:44;14.65;;;6.03;;
52057;SDS011;38063;53.210;6.504;2023-04-15T00:32:10;11.13;;;5.82;;
52057;SDS011;38063;53.210;6.504;2023-04-15T00:34:35;14.57;;;5.90;;
52057;SDS011;38063;53.210;6.504;2023-04-15T00:37:01;11.70;;;6.22;;
52057;SDS011;38063;53.210;6.504;2023-04-15T00:39:27;13.68;;;6.28;;
52057;SDS011;38063;53.210;6.504;2023-04-15T00:41:53;13.48;;;6.25;;
52057;SDS011;38063;53.210;6.504;2023-04-15T00:44:19;14.10;;;7.45;;
52057;SDS011;38063;53.210;6.504;2023-04-15T00:46:45;11.85;;;7.15;;
52057;SDS011;38063;53.210;6.504;2023-04-15T00:49:12;12.38;;;6.72;;
52057;SDS011;38063;53.210;6.504;2023-04-15T00:51:38;12.98;;;6.90;;
52057;SDS011;38063;53.210;6.504;2023-04-15T00:54:04;12.30;;;6.32;;
52057;SDS011;38063;53.210;6.504;2023-04-15T00:56:35;12.25;;;6.53;;
52057;SDS011;38063;53.210;6.504;2023-04-15T00:59:02;15.20;;;6.80;;
52057;SDS011;38063;53.210;6.504;2023-04-15T01:01:30;13.57;;;7.20;;
52057;SDS011;38063;53.210;6.504;2023-04-15T01:03:58;11.68;;;6.82;;
52057;SDS011;38063;53.210;6.504;2023-04-15T01:06:23;14.57;;;7.38;;
52057;SDS011;38063;53.210;6.504;2023-04-15T01:08:51;10.15;;;6.80;;
52057;SDS011;38063;53.210;6.504;2023-04-15T01:11:18;13.40;;;7.22;;
52057;SDS011;38063;53.210;6.504;2023-04-15T01:13:44;12.82;;;7.30;;
52057;SDS011;38063;53.210;6.504;2023-04-15T01:16:10;12.13;;;7.22;;
52057;SDS011;38063;53.210;6.504;2023-04-15T01:18:37;13.23;;;7.20;;
52057;SDS011;38063;53.210;6.504;2023-04-15T01:21:03;12.52;;;7.25;;
52057;SDS011;38063;53.210;6.504;2023-04-15T01:23:30;13.38;;;7.00;;
52057;SDS011;38063;53.210;6.504;2023-04-15T01:25:56;14.85;;;7.00;;
52057;SDS011;38063;53.210;6.504;2023-04-15T01:28:23;12.18;;;7.00;;
52057;SDS011;38063;53.210;6.504;2023-04-15T01:30:49;14.00;;;7.70;;
52057;SDS011;38063;53.210;6.504;2023-04-15T01:33:15;14.68;;;7.32;;
52057;SDS011;38063;53.210;6.504;2023-04-15T01:35:41;11.43;;;7.03;;
52057;SDS011;38063;53.210;6.504;2023-04-15T01:38:10;10.40;;;7.57;;
52057;SDS011;38063;53.210;6.504;2023-04-15T01:40:35;16.33;;;7.22;;
52057;SDS011;38063;53.210;6.504;2023-04-15T01:43:01;11.23;;;6.80;;
52057;SDS011;38063;53.210;6.504;2023-04-15T01:45:28;13.50;;;7.45;;
52057;SDS011;38063;53.210;6.504;2023-04-15T01:47:54;12.73;;;7.22;;
52057;SDS011;38063;53.210;6.504;2023-04-15T01:50:19;10.10;;;6.30;;
52057;SDS011;38063;53.210;6.504;2023-04-15T01:52:45;11.77;;;7.00;;
52057;SDS011;38063;53.210;6.504;2023-04-15T01:55:12;11.63;;;7.38;;
52057;SDS011;38063;53.210;6.504;2023-04-15T01:57:38;13.82;;;6.82;;
52057;SDS011;38063;53.210;6.504;2023-04-15T02:00:04;13.27;;;7.78;;
52057;SDS011;38063;53.210;6.504;2023-04-15T02:02:32;14.45;;;7.20;;
52057;SDS011;38063;53.210;6.504;2023-04-15T02:04:58;14.40;;;7.60;;
52057;SDS011;38063;53.210;6.504;2023-04-15T02:07:24;10.27;;;6.93;;
52057;SDS011;38063;53.210;6.504;2023-04-15T02:09:49;11.85;;;7.20;;
52057;SDS011;38063;53.210;6.504;2023-04-15T02:12:15;12.00;;;7.82;;
52057;SDS011;38063;53.210;6.504;2023-04-15T02:14:41;11.85;;;7.15;;
52057;SDS011;38063;53.210;6.504;2023-04-15T02:17:06;11.82;;;7.72;;
52057;SDS011;38063;53.210;6.504;2023-04-15T02:19:35;15.05;;;7.60;;
52057;SDS011;38063;53.210;6.504;2023-04-15T02:22:01;13.73;;;7.38;;
52057;SDS011;38063;53.210;6.504;2023-04-15T02:24:28;17.48;;;9.10;;
52057;SDS011;38063;53.210;6.504;2023-04-15T02:26:54;14.25;;;7.68;;
52057;SDS011;38063;53.210;6.504;2023-04-15T02:29:20;12.35;;;8.23;;
52057;SDS011;38063;53.210;6.504;2023-04-15T02:31:47;15.40;;;8.23;;
52057;SDS011;38063;53.210;6.504;2023-04-15T02:34:12;13.52;;;8.95;;
52057;SDS011;38063;53.210;6.504;2023-04-15T02:36:38;16.80;;;8.90;;
52057;SDS011;38063;53.210;6.504;2023-04-15T02:39:05;16.83;;;8.85;;
52057;SDS011;38063;53.210;6.504;2023-04-15T02:41:31;13.60;;;8.73;;
52057;SDS011;38063;53.210;6.504;2023-04-15T02:43:56;15.27;;;8.98;;
52057;SDS011;38063;53.210;6.504;2023-04-15T02:46:22;14.15;;;8.90;;
52057;SDS011;38063;53.210;6.504;2023-04-15T02:48:48;14.60;;;8.85;;
52057;SDS011;38063;53.210;6.504;2023-04-15T02:51:15;18.33;;;9.93;;
52057;SDS011;38063;53.210;6.504;2023-04-15T02:53:43;13.98;;;9.73;;
52057;SDS011;38063;53.210;6.504;2023-04-15T02:56:10;15.90;;;9.85;;
52057;SDS011;38063;53.210;6.504;2023-04-15T02:58:36;17.25;;;9.50;;
52057;SDS011;38063;53.210;6.504;2023-04-15T03:01:03;15.80;;;10.05;;
52057;SDS011;38063;53.210;6.504;2023-04-15T03:03:29;17.98;;;10.45;;
52057;SDS011;38063;53.210;6.504;2023-04-15T03:05:55;14.80;;;9.48;;
52057;SDS011;38063;53.210;6.504;2023-04-15T03:08:20;17.15;;;10.18;;
52057;SDS011;38063;53.210;6.504;2023-04-15T03:10:46;14.98;;;9.52;;
52057;SDS011;38063;53.210;6.504;2023-04-15T03:13:12;19.95;;;10.65;;
52057;SDS011;38063;53.210;6.504;2023-04-15T03:15:38;18.25;;;10.38;;
52057;SDS011;38063;53.210;6.504;2023-04-15T03:18:03;16.45;;;10.50;;
52057;SDS011;38063;53.210;6.504;2023-04-15T03:20:29;15.68;;;9.95;;
52057;SDS011;38063;53.210;6.504;2023-04-15T03:22:55;16.63;;;9.93;;
52057;SDS011;38063;53.210;6.504;2023-04-15T03:25:21;19.33;;;11.68;;
52057;SDS011;38063;53.210;6.504;2023-04-15T03:27:46;18.52;;;10.20;;
52057;SDS011;38063;53.210;6.504;2023-04-15T03:30:12;17.67;;;10.40;;
52057;SDS011;38063;53.210;6.504;2023-04-15T03:32:38;17.90;;;10.57;;
52057;SDS011;38063;53.210;6.504;2023-04-15T03:35:04;19.40;;;11.93;;
52057;SDS011;38063;53.210;6.504;2023-04-15T03:37:30;17.17;;;11.75;;
52057;SDS011;38063;53.210;6.504;2023-04-15T03:39:56;18.45;;;11.10;;
52057;SDS011;38063;53.210;6.504;2023-04-15T03:42:22;19.42;;;12.55;;
52057;SDS011;38063;53.210;6.504;2023-04-15T03:44:47;20.70;;;11.93;;
52057;SDS011;38063;53.210;6.504;2023-04-15T03:47:13;20.95;;;11.60;;
52057;SDS011;38063;53.210;6.504;2023-04-15T03:49:39;18.30;;;11.93;;
52057;SDS011;38063;53.210;6.504;2023-04-15T03:52:05;19.95;;;12.35;;
52057;SDS011;38063;53.210;6.504;2023-04-15T03:54:31;19.83;;;11.85;;
52057;SDS011;38063;53.210;6.504;2023-04-15T03:56:56;21.83;;;12.00;;
52057;SDS011;38063;53.210;6.504;2023-04-15T03:59:25;18.70;;;11.98;;
52057;SDS011;38063;53.210;6.504;2023-04-15T04:01:51;21.42;;;12.02;;
52057;SDS011;38063;53.210;6.504;2023-04-15T04:04:16;21.38;;;13.55;;
52057;SDS011;38063;53.210;6.504;2023-04-15T04:06:42;24.67;;;14.15;;
52057;SDS011;38063;53.210;6.504;2023-04-15T04:09:08;22.73;;;14.63;;
52057;SDS011;38063;53.210;6.504;2023-04-15T04:11:34;22.08;;;13.85;;
52057;SDS011;38063;53.210;6.504;2023-04-15T04:13:59;25.73;;;15.13;;
52057;SDS011;38063;53.210;6.504;2023-04-15T04:16:25;26.90;;;15.32;;
52057;SDS011;38063;53.210;6.504;2023-04-15T04:18:51;22.77;;;14.38;;
52057;SDS011;38063;53.210;6.504;2023-04-15T04:21:16;24.00;;;15.32;;
52057;SDS011;38063;53.210;6.504;2023-04-15T04:23:42;23.02;;;15.07;;
52057;SDS011;38063;53.210;6.504;2023-04-15T04:26:08;22.48;;;13.50;;
52057;SDS011;38063;53.210;6.504;2023-04-15T04:28:33;21.42;;;12.98;;
52057;SDS011;38063;53.210;6.504;2023-04-15T04:31:00;21.05;;;12.93;;
52057;SDS011;38063;53.210;6.504;2023-04-15T04:33:26;23.35;;;13.30;;
52057;SDS011;38063;53.210;6.504;2023-04-15T04:35:51;20.17;;;12.30;;
52057;SDS011;38063;53.210;6.504;2023-04-15T04:38:17;19.00;;;11.88;;
52057;SDS011;38063;53.210;6.504;2023-04-15T04:40:43;19.75;;;13.13;;
52057;SDS011;38063;53.210;6.504;2023-04-15T04:43:08;23.20;;;12.93;;
52057;SDS011;38063;53.210;6.504;2023-04-15T04:45:34;20.27;;;11.55;;
52057;SDS011;38063;53.210;6.504;2023-04-15T04:48:00;17.30;;;11.27;;
52057;SDS011;38063;53.210;6.504;2023-04-15T04:50:25;19.02;;;12.02;;
52057;SDS011;38063;53.210;6.504;2023-04-15T04:52:51;19.08;;;11.93;;
52057;SDS011;38063;53.210;6.504;2023-04-15T04:55:17;20.23;;;12.50;;
52057;SDS011;38063;53.210;6.504;2023-04-15T04:57:43;21.42;;;13.40;;
52057;SDS011;38063;53.210;6.504;2023-04-15T05:00:09;21.48;;;12.95;;
52057;SDS011;38063;53.210;6.504;2023-04-15T05:02:35;21.13;;;12.93;;
52057;SDS011;38063;53.210;6.504;2023-04-15T05:05:00;22.55;;;13.43;;
52057;SDS011;38063;53.210;6.504;2023-04-15T05:07:26;23.00;;;13.35;;
52057;SDS011;38063;53.210;6.504;2023-04-15T05:09:52;22.55;;;12.98;;
52057;SDS011;38063;53.210;6.504;2023-04-15T05:12:17;25.48;;;14.35;;
52057;SDS011;38063;53.210;6.504;2023-04-15T05:14:43;24.13;;;14.45;;
52057;SDS011;38063;53.210;6.504;2023-04-15T05:17:10;24.20;;;14.27;;
52057;SDS011;38063;53.210;6.504;2023-04-15T05:19:36;24.52;;;14.32;;
52057;SDS011;38063;53.210;6.504;2023-04-15T05:22:02;24.50;;;14.07;;
52057;SDS011;38063;53.210;6.504;2023-04-15T05:24:27;24.60;;;14.45;;
52057;SDS011;38063;53.210;6.504;2023-04-15T05:26:53;26.85;;;15.40;;
52057;SDS011;38063;53.210;6.504;2023-04-15T05:29:20;24.55;;;15.60;;
52057;SDS011;38063;53.210;6.504;2023-04-15T05:31:46;31.48;;;15.50;;
52057;SDS011;38063;53.210;6.504;2023-04-15T05:34:11;26.70;;;14.55;;
52057;SDS011;38063;53.210;6.504;2023-04-15T05:36:39;26.10;;;14.30;;
52057;SDS011;38063;53.210;6.504;2023-04-15T05:39:05;25.65;;;14.65;;
52057;SDS011;38063;53.210;6.504;2023-04-15T05:41:31;22.75;;;13.40;;
52057;SDS011;38063;53.210;6.504;2023-04-15T05:43:57;24.08;;;13.32;;
52057;SDS011;38063;53.210;6.504;2023-04-15T05:46:22;22.75;;;13.10;;
52057;SDS011;38063;53.210;6.504;2023-04-15T05:48:48;22.48;;;13.43;;
52057;SDS011;38063;53.210;6.504;2023-04-15T05:51:14;21.42;;;12.10;;
52057;SDS011;38063;53.210;6.504;2023-04-15T05:53:40;22.40;;;12.82;;
52057;SDS011;38063;53.210;6.504;2023-04-15T05:56:06;24.05;;;13.27;;
52057;SDS011;38063;53.210;6.504;2023-04-15T05:58:32;20.92;;;12.60;;
52057;SDS011;38063;53.210;6.504;2023-04-15T06:00:57;20.10;;;12.70;;
52057;SDS011;38063;53.210;6.504;2023-04-15T06:03:23;20.58;;;12.63;;
52057;SDS011;38063;53.210;6.504;2023-04-15T06:05:49;20.35;;;12.25;;
52057;SDS011;38063;53.210;6.504;2023-04-15T06:08:15;20.75;;;12.35;;
52057;SDS011;38063;53.210;6.504;2023-04-15T06:10:41;22.10;;;12.95;;
52057;SDS011;38063;53.210;6.504;2023-04-15T06:13:06;21.63;;;12.57;;
52057;SDS011;38063;53.210;6.504;2023-04-15T06:15:32;21.23;;;12.43;;
52057;SDS011;38063;53.210;6.504;2023-04-15T06:17:58;22.05;;;12.38;;
52057;SDS011;38063;53.210;6.504;2023-04-15T06:20:23;27.52;;;13.52;;
52057;SDS011;38063;53.210;6.504;2023-04-15T06:22:49;25.05;;;13.55;;
52057;SDS011;38063;53.210;6.504;2023-04-15T06:25:15;24.77;;;13.73;;
52057;SDS011;38063;53.210;6.504;2023-04-15T06:27:41;26.20;;;12.90;;
52057;SDS011;38063;53.210;6.504;2023-04-15T06:30:07;24.30;;;13.63;;
52057;SDS011;38063;53.210;6.504;2023-04-15T06:32:33;25.13;;;13.70;;
52057;SDS011;38063;53.210;6.504;2023-04-15T06:34:58;26.85;;;14.57;;
52057;SDS011;38063;53.210;6.504;2023-04-15T06:37:24;23.25;;;13.77;;
52057;SDS011;38063;53.210;6.504;2023-04-15T06:39:50;22.50;;;13.45;;
52057;SDS011;38063;53.210;6.504;2023-04-15T06:42:15;27.40;;;13.68;;
52057;SDS011;38063;53.210;6.504;2023-04-15T06:44:41;25.85;;;13.63;;
52057;SDS011;38063;53.210;6.504;2023-04-15T06:47:07;29.60;;;13.98;;
52057;SDS011;38063;53.210;6.504;2023-04-15T06:49:33;26.55;;;14.27;;
52057;SDS011;38063;53.210;6.504;2023-04-15T06:51:59;25.38;;;14.10;;
52057;SDS011;38063;53.210;6.504;2023-04-15T06:54:25;27.42;;;14.45;;
52057;SDS011;38063;53.210;6.504;2023-04-15T06:56:51;24.75;;;12.85;;
52057;SDS011;38063;53.210;6.504;2023-04-15T06:59:17;24.98;;;13.85;;
52057;SDS011;38063;53.210;6.504;2023-04-15T07:01:43;26.40;;;13.18;;
52057;SDS011;38063;53.210;6.504;2023-04-15T07:04:09;25.70;;;13.00;;
52057;SDS011;38063;53.210;6.504;2023-04-15T07:06:36;25.23;;;12.02;;
52057;SDS011;38063;53.210;6.504;2023-04-15T07:09:02;20.00;;;11.48;;
52057;SDS011;38063;53.210;6.504;2023-04-15T07:11:29;24.25;;;11.10;;
52057;SDS011;38063;53.210;6.504;2023-04-15T07:13:56;21.38;;;10.98;;
52057;SDS011;38063;53.210;6.504;2023-04-15T07:16:22;18.05;;;10.32;;
52057;SDS011;38063;53.210;6.504;2023-04-15T07:18:48;21.40;;;10.45;;
52057;SDS011;38063;53.210;6.504;2023-04-15T07:21:13;16.00;;;8.98;;
52057;SDS011;38063;53.210;6.504;2023-04-15T07:23:39;18.10;;;9.48;;
52057;SDS011;38063;53.210;6.504;2023-04-15T07:26:04;11.98;;;8.35;;
52057;SDS011;38063;53.210;6.504;2023-04-15T07:28:30;19.10;;;9.18;;
52057;SDS011;38063;53.210;6.504;2023-04-15T07:30:56;12.27;;;7.60;;
52057;SDS011;38063;53.210;6.504;2023-04-15T07:33:21;16.05;;;7.00;;
52057;SDS011;38063;53.210;6.504;2023-04-15T07:35:47;13.85;;;6.43;;
52057;SDS011;38063;53.210;6.504;2023-04-15T07:38:14;14.63;;;6.18;;
52057;SDS011;38063;53.210;6.504;2023-04-15T07:40:39;12.38;;;6.43;;
52057;SDS011;38063;53.210;6.504;2023-04-15T07:43:06;13.65;;;6.65;;
52057;SDS011;38063;53.210;6.504;2023-04-15T07:45:33;10.82;;;6.78;;
52057;SDS011;38063;53.210;6.504;2023-04-15T07:47:59;11.05;;;6.90;;
52057;SDS011;38063;53.210;6.504;2023-04-15T07:50:26;11.50;;;7.10;;
52057;SDS011;38063;53.210;6.504;2023-04-15T07:52:52;12.07;;;6.95;;
52057;SDS011;38063;53.210;6.504;2023-04-15T07:55:18;15.30;;;7.78;;
52057;SDS011;38063;53.210;6.504;2023-04-15T07:57:47;12.48;;;6.88;;
52057;SDS011;38063;53.210;6.504;2023-04-15T08:00:13;12.07;;;7.35;;
52057;SDS011;38063;53.210;6.504;2023-04-15T08:02:40;12.63;;;6.88;;
52057;SDS011;38063;53.210;6.504;2023-04-15T08:05:07;11.63;;;6.40;;
52057;SDS011;38063;53.210;6.504;2023-04-15T08:07:33;9.40;;;5.53;;
52057;SDS011;38063;53.210;6.504;2023-04-15T08:10:00;14.30;;;6.50;;
52057;SDS011;38063;53.210;6.504;2023-04-15T08:12:26;12.93;;;6.32;;
52057;SDS011;38063;53.210;6.504;2023-04-15T08:14:52;11.50;;;5.82;;
52057;SDS011;38063;53.210;6.504;2023-04-15T08:17:18;8.82;;;5.47;;
52057;SDS011;38063;53.210;6.504;2023-04-15T08:19:44;8.70;;;5.03;;
52057;SDS011;38063;53.210;6.504;2023-04-15T08:22:12;12.77;;;5.53;;
52057;SDS011;38063;53.210;6.504;2023-04-15T08:24:38;8.32;;;4.90;;
52057;SDS011;38063;53.210;6.504;2023-04-15T08:27:04;9.95;;;5.25;;
52057;SDS011;38063;53.210;6.504;2023-04-15T08:29:33;8.35;;;4.43;;
52057;SDS011;38063;53.210;6.504;2023-04-15T08:31:59;6.40;;;4.05;;
52057;SDS011;38063;53.210;6.504;2023-04-15T08:34:29;6.20;;;4.00;;
52057;SDS011;38063;53.210;6.504;2023-04-15T08:36:55;7.78;;;4.03;;
52057;SDS011;38063;53.210;6.504;2023-04-15T08:39:21;7.38;;;3.55;;
52057;SDS011;38063;53.210;6.504;2023-04-15T08:41:47;6.35;;;3.47;;
52057;SDS011;38063;53.210;6.504;2023-04-15T08:44:20;6.18;;;3.05;;
52057;SDS011;38063;53.210;6.504;2023-04-15T08:46:49;7.65;;;3.80;;
52057;SDS011;38063;53.210;6.504;2023-04-15T08:49:16;7.43;;;3.00;;
52057;SDS011;38063;53.210;6.504;2023-04-15T08:51:43;4.38;;;2.72;;
52057;SDS011;38063;53.210;6.504;2023-04-15T08:54:09;7.65;;;2.88;;
52057;SDS011;38063;53.210;6.504;2023-04-15T08:56:35;6.68;;;2.80;;
52057;SDS011;38063;53.210;6.504;2023-04-15T08:59:03;4.93;;;2.92;;
52057;SDS011;38063;53.210;6.504;2023-04-15T09:01:30;4.57;;;2.53;;
52057;SDS011;38063;53.210;6.504;2023-04-15T09:03:56;4.28;;;2.83;;
52057;SDS011;38063;53.210;6.504;2023-04-15T09:06:23;6.75;;;2.95;;
52057;SDS011;38063;53.210;6.504;2023-04-15T09:08:50;6.22;;;2.95;;
52057;SDS011;38063;53.210;6.504;2023-04-15T09:11:16;9.98;;;3.72;;
52057;SDS011;38063;53.210;6.504;2023-04-15T09:13:42;10.38;;;4.00;;
52057;SDS011;38063;53.210;6.504;2023-04-15T09:16:08;9.70;;;3.60;;
52057;SDS011;38063;53.210;6.504;2023-04-15T09:18:34;11.88;;;3.83;;
52057;SDS011;38063;53.210;6.504;2023-04-15T09:21:04;10.63;;;3.55;;
52057;SDS011;38063;53.210;6.504;2023-04-15T09:23:32;8.90;;;3.13;;
52057;SDS011;38063;53.210;6.504;2023-04-15T09:26:00;4.13;;;2.50;;
52057;SDS011;38063;53.210;6.504;2023-04-15T09:28:26;6.38;;;2.38;;
52057;SDS011;38063;53.210;6.504;2023-04-15T09:30:56;8.23;;;2.88;;
52057;SDS011;38063;53.210;6.504;2023-04-15T09:33:23;6.93;;;2.47;;
52057;SDS011;38063;53.210;6.504;2023-04-15T09:38:27;5.22;;;2.30;;
52057;SDS011;38063;53.210;6.504;2023-04-15T09:40:53;8.05;;;2.60;;
52057;SDS011;38063;53.210;6.504;2023-04-15T09:43:21;6.80;;;2.30;;
52057;SDS011;38063;53.210;6.504;2023-04-15T09:45:48;5.18;;;2.10;;
52057;SDS011;38063;53.210;6.504;2023-04-15T09:50:43;7.78;;;1.90;;
52057;SDS011;38063;53.210;6.504;2023-04-15T09:53:09;3.55;;;1.58;;
52057;SDS011;38063;53.210;6.504;2023-04-15T09:55:37;3.70;;;1.75;;
52057;SDS011;38063;53.210;6.504;2023-04-15T09:58:25;3.10;;;1.95;;
52057;SDS011;38063;53.210;6.504;2023-04-15T10:00:51;5.30;;;1.70;;
52057;SDS011;38063;53.210;6.504;2023-04-15T10:03:21;2.72;;;1.73;;
52057;SDS011;38063;53.210;6.504;2023-04-15T10:05:49;2.72;;;1.60;;
52057;SDS011;38063;53.210;6.504;2023-04-15T10:08:17;5.50;;;1.73;;
52057;SDS011;38063;53.210;6.504;2023-04-15T10:10:45;4.43;;;1.75;;
52057;SDS011;38063;53.210;6.504;2023-04-15T10:13:19;2.85;;;1.33;;
52057;SDS011;38063;53.210;6.504;2023-04-15T10:15:49;5.83;;;1.63;;
52057;SDS011;38063;53.210;6.504;2023-04-15T10:18:27;4.00;;;2.08;;
52057;SDS011;38063;53.210;6.504;2023-04-15T10:21:01;4.72;;;1.65;;
52057;SDS011;38063;53.210;6.504;2023-04-15T10:23:29;5.30;;;2.45;;
52057;SDS011;38063;53.210;6.504;2023-04-15T10:25:56;5.57;;;2.20;;
52057;SDS011;38063;53.210;6.504;2023-04-15T10:28:23;5.63;;;1.75;;
52057;SDS011;38063;53.210;6.504;2023-04-15T10:30:51;4.68;;;1.80;;
52057;SDS011;38063;53.210;6.504;2023-04-15T10:33:18;4.22;;;2.40;;
52057;SDS011;38063;53.210;6.504;2023-04-15T10:35:47;5.63;;;2.20;;
52057;SDS011;38063;53.210;6.504;2023-04-15T10:38:31;5.68;;;2.03;;
52057;SDS011;38063;53.210;6.504;2023-04-15T10:47:03;6.40;;;1.92;;
52057;SDS011;38063;53.210;6.504;2023-04-15T10:49:10;4.88;;;2.03;;
52057;SDS011;38063;53.210;6.504;2023-04-15T10:51:41;7.38;;;2.50;;
52057;SDS011;38063;53.210;6.504;2023-04-15T10:54:13;6.35;;;2.53;;
52057;SDS011;38063;53.210;6.504;2023-04-15T10:56:41;6.68;;;2.40;;
52057;SDS011;38063;53.210;6.504;2023-04-15T10:59:08;7.82;;;2.80;;
52057;SDS011;38063;53.210;6.504;2023-04-15T11:04:52;7.07;;;2.13;;
52057;SDS011;38063;53.210;6.504;2023-04-15T11:07:34;7.45;;;2.72;;
52057;SDS011;38063;53.210;6.504;2023-04-15T11:12:45;6.68;;;2.47;;
52057;SDS011;38063;53.210;6.504;2023-04-15T11:20:38;5.45;;;2.00;;
52057;SDS011;38063;53.210;6.504;2023-04-15T11:23:11;6.03;;;1.75;;
52057;SDS011;38063;53.210;6.504;2023-04-15T11:25:38;5.85;;;2.25;;
52057;SDS011;38063;53.210;6.504;2023-04-15T11:28:04;8.73;;;2.13;;
52057;SDS011;38063;53.210;6.504;2023-04-15T11:30:32;15.82;;;3.85;;
52057;SDS011;38063;53.210;6.504;2023-04-15T11:33:00;5.97;;;2.20;;
52057;SDS011;38063;53.210;6.504;2023-04-15T11:35:36;6.28;;;2.00;;
52057;SDS011;38063;53.210;6.504;2023-04-15T11:38:03;8.55;;;2.05;;
52057;SDS011;38063;53.210;6.504;2023-04-15T11:40:30;8.07;;;2.35;;
52057;SDS011;38063;53.210;6.504;2023-04-15T11:45:30;7.05;;;1.70;;
52057;SDS011;38063;53.210;6.504;2023-04-15T11:48:04;7.05;;;1.70;;
52057;SDS011;38063;53.210;6.504;2023-04-15T11:50:30;5.82;;;2.00;;
52057;SDS011;38063;53.210;6.504;2023-04-15T11:52:57;9.40;;;2.38;;
52057;SDS011;38063;53.210;6.504;2023-04-15T11:55:24;6.93;;;1.85;;
52057;SDS011;38063;53.210;6.504;2023-04-15T11:58:04;9.45;;;1.92;;
52057;SDS011;38063;53.210;6.504;2023-04-15T12:00:32;9.10;;;2.17;;
52057;SDS011;38063;53.210;6.504;2023-04-15T12:06:04;10.35;;;2.00;;
52057;SDS011;38063;53.210;6.504;2023-04-15T12:16:23;4.88;;;1.80;;
52057;SDS011;38063;53.210;6.504;2023-04-15T12:18:50;7.82;;;1.83;;
52057;SDS011;38063;53.210;6.504;2023-04-15T12:21:20;11.00;;;2.00;;
52057;SDS011;38063;53.210;6.504;2023-04-15T12:23:47;8.18;;;2.33;;
52057;SDS011;38063;53.210;6.504;2023-04-15T12:26:17;7.03;;;1.60;;
52057;SDS011;38063;53.210;6.504;2023-04-15T12:28:52;4.00;;;1.70;;
52057;SDS011;38063;53.210;6.504;2023-04-15T12:31:28;10.85;;;1.95;;
52057;SDS011;38063;53.210;6.504;2023-04-15T12:33:54;6.13;;;1.40;;
52057;SDS011;38063;53.210;6.504;2023-04-15T12:36:21;12.00;;;1.70;;
52057;SDS011;38063;53.210;6.504;2023-04-15T12:38:47;5.82;;;1.58;;
52057;SDS011;38063;53.210;6.504;2023-04-15T12:41:13;10.20;;;2.03;;
52057;SDS011;38063;53.210;6.504;2023-04-15T12:43:39;7.20;;;1.65;;
52057;SDS011;38063;53.210;6.504;2023-04-15T12:46:06;11.77;;;2.13;;
52057;SDS011;38063;53.210;6.504;2023-04-15T12:48:32;8.63;;;1.88;;
52057;SDS011;38063;53.210;6.504;2023-04-15T12:50:58;8.75;;;1.58;;
52057;SDS011;38063;53.210;6.504;2023-04-15T12:53:24;14.63;;;2.08;;
52057;SDS011;38063;53.210;6.504;2023-04-15T12:55:50;8.75;;;1.95;;
52057;SDS011;38063;53.210;6.504;2023-04-15T12:58:16;7.95;;;2.10;;
52057;SDS011;38063;53.210;6.504;2023-04-15T13:00:42;6.18;;;1.73;;
52057;SDS011;38063;53.210;6.504;2023-04-15T13:03:08;8.52;;;1.48;;
52057;SDS011;38063;53.210;6.504;2023-04-15T13:05:34;8.18;;;1.98;;
52057;SDS011;38063;53.210;6.504;2023-04-15T13:08:03;7.47;;;1.90;;
52057;SDS011;38063;53.210;6.504;2023-04-15T13:10:29;10.18;;;1.80;;
52057;SDS011;38063;53.210;6.504;2023-04-15T13:12:56;7.47;;;2.05;;
52057;SDS011;38063;53.210;6.504;2023-04-15T13:15:21;7.70;;;2.28;;
52057;SDS011;38063;53.210;6.504;2023-04-15T13:17:47;9.50;;;1.63;;
52057;SDS011;38063;53.210;6.504;2023-04-15T13:20:14;7.47;;;1.85;;
52057;SDS011;38063;53.210;6.504;2023-04-15T13:22:39;11.13;;;1.90;;
52057;SDS011;38063;53.210;6.504;2023-04-15T13:25:05;12.98;;;2.28;;
52057;SDS011;38063;53.210;6.504;2023-04-15T13:27:32;9.57;;;1.83;;
52057;SDS011;38063;53.210;6.504;2023-04-15T13:29:58;10.73;;;2.22;;
52057;SDS011;38063;53.210;6.504;2023-04-15T13:32:24;9.68;;;2.00;;
52057;SDS011;38063;53.210;6.504;2023-04-15T13:34:50;9.07;;;2.00;;
52057;SDS011;38063;53.210;6.504;2023-04-15T13:37:15;17.10;;;2.20;;
52057;SDS011;38063;53.210;6.504;2023-04-15T13:39:41;10.98;;;2.30;;
52057;SDS011;38063;53.210;6.504;2023-04-15T13:42:07;10.90;;;1.83;;
52057;SDS011;38063;53.210;6.504;2023-04-15T13:44:33;9.65;;;1.77;;
52057;SDS011;38063;53.210;6.504;2023-04-15T13:46:59;6.85;;;1.73;;
52057;SDS011;38063;53.210;6.504;2023-04-15T13:49:25;9.45;;;1.70;;
52057;SDS011;38063;53.210;6.504;2023-04-15T13:51:50;5.88;;;2.03;;
52057;SDS011;38063;53.210;6.504;2023-04-15T13:54:16;9.38;;;2.17;;
52057;SDS011;38063;53.210;6.504;2023-04-15T13:56:42;9.07;;;1.90;;
52057;SDS011;38063;53.210;6.504;2023-04-15T13:59:08;8.30;;;1.65;;
52057;SDS011;38063;53.210;6.504;2023-04-15T14:01:33;6.80;;;1.90;;
52057;SDS011;38063;53.210;6.504;2023-04-15T14:04:00;12.68;;;2.35;;
52057;SDS011;38063;53.210;6.504;2023-04-15T14:06:25;12.23;;;2.03;;
52057;SDS011;38063;53.210;6.504;2023-04-15T14:08:53;8.43;;;2.10;;
52057;SDS011;38063;53.210;6.504;2023-04-15T14:11:19;9.20;;;2.05;;
52057;SDS011;38063;53.210;6.504;2023-04-15T14:13:44;8.77;;;1.88;;
52057;SDS011;38063;53.210;6.504;2023-04-15T14:16:10;14.02;;;2.65;;
52057;SDS011;38063;53.210;6.504;2023-04-15T14:18:36;11.95;;;2.10;;
52057;SDS011;38063;53.210;6.504;2023-04-15T14:21:01;9.68;;;2.22;;
52057;SDS011;38063;53.210;6.504;2023-04-15T14:23:27;9.60;;;2.40;;
52057;SDS011;38063;53.210;6.504;2023-04-15T14:25:53;11.05;;;2.13;;
52057;SDS011;38063;53.210;6.504;2023-04-15T14:28:19;8.13;;;2.28;;
52057;SDS011;38063;53.210;6.504;2023-04-15T14:30:45;11.05;;;2.53;;
52057;SDS011;38063;53.210;6.504;2023-04-15T14:33:11;14.43;;;2.83;;
52057;SDS011;38063;53.210;6.504;2023-04-15T14:35:37;11.82;;;2.60;;
52057;SDS011;38063;53.210;6.504;2023-04-15T14:38:03;9.40;;;2.83;;
52057;SDS011;38063;53.210;6.504;2023-04-15T14:40:30;13.40;;;2.83;;
52057;SDS011;38063;53.210;6.504;2023-04-15T14:42:57;11.00;;;2.67;;
52057;SDS011;38063;53.210;6.504;2023-04-15T14:45:22;11.38;;;2.80;;
52057;SDS011;38063;53.210;6.504;2023-04-15T14:47:48;18.05;;;2.88;;
52057;SDS011;38063;53.210;6.504;2023-04-15T14:50:14;13.48;;;2.63;;
52057;SDS011;38063;53.210;6.504;2023-04-15T14:52:41;11.45;;;3.88;;
52057;SDS011;38063;53.210;6.504;2023-04-15T14:55:07;12.00;;;2.65;;
52057;SDS011;38063;53.210;6.504;2023-04-15T14:57:34;14.85;;;2.90;;
52057;SDS011;38063;53.210;6.504;2023-04-15T15:00:02;18.33;;;3.25;;
52057;SDS011;38063;53.210;6.504;2023-04-15T15:02:28;14.55;;;3.50;;
52057;SDS011;38063;53.210;6.504;2023-04-15T15:04:54;11.25;;;3.28;;
52057;SDS011;38063;53.210;6.504;2023-04-15T15:07:20;12.27;;;3.17;;